METAR Data
IDs: Format: Raw Decoded Include TAF

Data at: 0948 UTC 26 Jan 2020

METAR for:KSPB (Scappoose Ind Airpar, OR, US)
Text:KSPB 260853Z AUTO 16007KT 6SM -RA BR OVC023 10/08 A2978 RMK AO2 SLP082 P0004 60017 T01000083 58020
Temperature: 10.0°C ( 50°F)
Dewpoint: 8.3°C ( 47°F) [RH = 89%]
Pressure (altimeter):29.78 inches Hg (1008.5 mb) [Sea level pressure: 1008.2 mb]
Winds:from the SSE (160 degrees) at 8 MPH (7 knots; 3.6 m/s)
Visibility: 6 sm ( 10 km)
Ceiling:2300 feet AGL
Clouds: overcast cloud deck at 2300 feet AGL
Weather:-RA BR (light rain, mist)
QC Flag:automated observation with no human augmentation